sensor_id;sensor_type;location;lat;lon;timestamp;P1;durP1;ratioP1;P2;durP2;ratioP2
4646;SDS011;2336;47.822;7.564;2022-12-17T04:32:42;65.57;;;29.98;;
4646;SDS011;2336;47.822;7.564;2022-12-17T04:35:27;55.33;;;28.25;;
4646;SDS011;2336;47.822;7.564;2022-12-17T04:38:11;46.63;;;27.30;;
4646;SDS011;2336;47.822;7.564;2022-12-17T04:40:55;47.50;;;26.52;;
4646;SDS011;2336;47.822;7.564;2022-12-17T04:43:39;43.30;;;26.52;;
4646;SDS011;2336;47.822;7.564;2022-12-17T04:46:23;45.35;;;26.05;;
4646;SDS011;2336;47.822;7.564;2022-12-17T04:49:09;46.70;;;27.20;;
4646;SDS011;2336;47.822;7.564;2022-12-17T04:51:59;43.05;;;25.85;;
4646;SDS011;2336;47.822;7.564;2022-12-17T04:54:43;40.08;;;24.17;;
4646;SDS011;2336;47.822;7.564;2022-12-17T04:57:27;34.92;;;22.67;;
4646;SDS011;2336;47.822;7.564;2022-12-17T05:00:12;35.55;;;22.58;;
4646;SDS011;2336;47.822;7.564;2022-12-17T05:03:02;45.70;;;25.60;;
4646;SDS011;2336;47.822;7.564;2022-12-17T05:05:48;46.30;;;25.05;;
4646;SDS011;2336;47.822;7.564;2022-12-17T05:08:32;39.25;;;24.70;;
4646;SDS011;2336;47.822;7.564;2022-12-17T05:11:17;37.20;;;23.00;;
4646;SDS011;2336;47.822;7.564;2022-12-17T05:14:01;32.75;;;22.17;;
4646;SDS011;2336;47.822;7.564;2022-12-17T05:16:57;30.25;;;20.92;;
4646;SDS011;2336;47.822;7.564;2022-12-17T05:19:41;28.40;;;20.60;;
4646;SDS011;2336;47.822;7.564;2022-12-17T05:22:27;33.33;;;21.13;;
4646;SDS011;2336;47.822;7.564;2022-12-17T05:25:11;31.02;;;20.75;;
4646;SDS011;2336;47.822;7.564;2022-12-17T05:27:56;33.60;;;22.05;;
4646;SDS011;2336;47.822;7.564;2022-12-17T05:30:40;30.30;;;21.13;;
4646;SDS011;2336;47.822;7.564;2022-12-17T05:33:25;31.48;;;20.50;;
4646;SDS011;2336;47.822;7.564;2022-12-17T05:36:09;31.23;;;20.90;;
4646;SDS011;2336;47.822;7.564;2022-12-17T05:39:09;29.27;;;20.08;;
4646;SDS011;2336;47.822;7.564;2022-12-17T05:41:54;27.80;;;19.25;;
4646;SDS011;2336;47.822;7.564;2022-12-17T05:44:38;25.05;;;18.95;;
4646;SDS011;2336;47.822;7.564;2022-12-17T05:47:23;31.92;;;20.05;;
4646;SDS011;2336;47.822;7.564;2022-12-17T05:50:07;36.33;;;22.10;;
4646;SDS011;2336;47.822;7.564;2022-12-17T05:52:52;28.17;;;18.77;;
4646;SDS011;2336;47.822;7.564;2022-12-17T05:55:38;30.95;;;19.65;;
4646;SDS011;2336;47.822;7.564;2022-12-17T15:33:23;78.22;;;35.25;;
4646;SDS011;2336;47.822;7.564;2022-12-17T15:35:50;64.72;;;33.13;;
4646;SDS011;2336;47.822;7.564;2022-12-17T15:38:17;84.95;;;35.95;;
4646;SDS011;2336;47.822;7.564;2022-12-17T15:40:43;69.53;;;38.33;;
4646;SDS011;2336;47.822;7.564;2022-12-17T15:43:11;57.08;;;31.52;;
4646;SDS011;2336;47.822;7.564;2022-12-17T15:45:37;65.50;;;31.83;;
4646;SDS011;2336;47.822;7.564;2022-12-17T15:48:05;57.80;;;31.25;;
4646;SDS011;2336;47.822;7.564;2022-12-17T15:50:34;57.40;;;29.25;;
4646;SDS011;2336;47.822;7.564;2022-12-17T15:53:00;61.42;;;30.00;;
4646;SDS011;2336;47.822;7.564;2022-12-17T15:55:27;42.53;;;27.02;;
4646;SDS011;2336;47.822;7.564;2022-12-17T15:57:54;33.58;;;22.13;;
4646;SDS011;2336;47.822;7.564;2022-12-17T16:00:22;38.22;;;22.95;;
4646;SDS011;2336;47.822;7.564;2022-12-17T16:02:49;44.70;;;25.23;;
4646;SDS011;2336;47.822;7.564;2022-12-17T16:05:17;45.40;;;25.55;;
4646;SDS011;2336;47.822;7.564;2022-12-17T16:07:46;44.17;;;22.65;;
4646;SDS011;2336;47.822;7.564;2022-12-17T16:10:13;49.22;;;24.40;;
4646;SDS011;2336;47.822;7.564;2022-12-17T16:12:40;55.20;;;24.33;;
4646;SDS011;2336;47.822;7.564;2022-12-17T16:15:08;79.95;;;26.25;;
4646;SDS011;2336;47.822;7.564;2022-12-17T16:17:36;62.95;;;27.20;;
4646;SDS011;2336;47.822;7.564;2022-12-17T16:20:03;56.55;;;27.85;;
4646;SDS011;2336;47.822;7.564;2022-12-17T16:22:31;57.90;;;25.05;;
4646;SDS011;2336;47.822;7.564;2022-12-17T16:24:59;45.17;;;23.70;;
4646;SDS011;2336;47.822;7.564;2022-12-17T16:27:26;67.60;;;26.13;;
4646;SDS011;2336;47.822;7.564;2022-12-17T16:29:53;50.45;;;25.20;;
4646;SDS011;2336;47.822;7.564;2022-12-17T16:32:20;48.33;;;24.55;;
4646;SDS011;2336;47.822;7.564;2022-12-17T16:34:47;47.35;;;25.00;;
4646;SDS011;2336;47.822;7.564;2022-12-17T16:37:13;65.80;;;27.05;;
4646;SDS011;2336;47.822;7.564;2022-12-17T16:39:40;60.17;;;28.85;;
4646;SDS011;2336;47.822;7.564;2022-12-17T16:42:08;60.78;;;28.85;;
4646;SDS011;2336;47.822;7.564;2022-12-17T16:44:35;60.15;;;27.25;;
4646;SDS011;2336;47.822;7.564;2022-12-17T16:47:02;60.65;;;29.20;;
4646;SDS011;2336;47.822;7.564;2022-12-17T16:49:29;54.33;;;26.15;;
4646;SDS011;2336;47.822;7.564;2022-12-17T16:51:56;67.47;;;27.98;;
4646;SDS011;2336;47.822;7.564;2022-12-17T16:54:24;59.08;;;28.38;;
4646;SDS011;2336;47.822;7.564;2022-12-17T16:56:54;66.47;;;30.65;;
4646;SDS011;2336;47.822;7.564;2022-12-17T16:59:22;68.85;;;31.00;;
4646;SDS011;2336;47.822;7.564;2022-12-17T17:01:49;60.15;;;28.35;;
4646;SDS011;2336;47.822;7.564;2022-12-17T17:04:18;47.22;;;26.48;;
4646;SDS011;2336;47.822;7.564;2022-12-17T17:06:47;50.17;;;27.33;;
4646;SDS011;2336;47.822;7.564;2022-12-17T17:09:15;51.65;;;27.67;;
4646;SDS011;2336;47.822;7.564;2022-12-17T17:11:43;49.92;;;28.20;;
4646;SDS011;2336;47.822;7.564;2022-12-17T17:14:09;58.55;;;28.00;;
4646;SDS011;2336;47.822;7.564;2022-12-17T17:16:38;50.55;;;27.85;;
4646;SDS011;2336;47.822;7.564;2022-12-17T17:19:05;58.95;;;28.77;;
4646;SDS011;2336;47.822;7.564;2022-12-17T17:21:32;47.60;;;27.13;;
4646;SDS011;2336;47.822;7.564;2022-12-17T17:24:00;42.90;;;25.65;;
4646;SDS011;2336;47.822;7.564;2022-12-17T17:26:30;57.15;;;32.28;;
4646;SDS011;2336;47.822;7.564;2022-12-17T17:28:58;61.53;;;31.75;;
4646;SDS011;2336;47.822;7.564;2022-12-17T17:31:26;50.08;;;27.40;;
4646;SDS011;2336;47.822;7.564;2022-12-17T17:33:54;52.45;;;28.27;;
4646;SDS011;2336;47.822;7.564;2022-12-17T17:36:22;51.10;;;29.10;;
4646;SDS011;2336;47.822;7.564;2022-12-17T17:38:50;53.42;;;27.83;;
4646;SDS011;2336;47.822;7.564;2022-12-17T17:41:19;62.70;;;30.63;;
4646;SDS011;2336;47.822;7.564;2022-12-17T17:43:51;50.85;;;28.23;;
4646;SDS011;2336;47.822;7.564;2022-12-17T17:46:18;64.90;;;29.30;;
4646;SDS011;2336;47.822;7.564;2022-12-17T17:48:46;51.90;;;27.13;;
4646;SDS011;2336;47.822;7.564;2022-12-17T17:51:15;58.15;;;28.48;;
4646;SDS011;2336;47.822;7.564;2022-12-17T17:53:43;53.92;;;29.92;;
4646;SDS011;2336;47.822;7.564;2022-12-17T17:56:11;54.63;;;28.58;;
4646;SDS011;2336;47.822;7.564;2022-12-17T17:58:40;63.83;;;34.03;;
4646;SDS011;2336;47.822;7.564;2022-12-17T18:01:08;56.80;;;29.02;;
4646;SDS011;2336;47.822;7.564;2022-12-17T18:03:36;44.15;;;24.73;;
4646;SDS011;2336;47.822;7.564;2022-12-17T18:06:04;55.70;;;27.35;;
4646;SDS011;2336;47.822;7.564;2022-12-17T18:08:33;69.43;;;27.50;;
4646;SDS011;2336;47.822;7.564;2022-12-17T18:11:01;53.47;;;25.83;;
4646;SDS011;2336;47.822;7.564;2022-12-17T18:13:30;60.40;;;26.98;;
4646;SDS011;2336;47.822;7.564;2022-12-17T18:16:15;61.47;;;30.33;;
4646;SDS011;2336;47.822;7.564;2022-12-17T18:18:42;40.10;;;25.00;;
4646;SDS011;2336;47.822;7.564;2022-12-17T18:21:10;46.90;;;27.50;;
4646;SDS011;2336;47.822;7.564;2022-12-17T18:23:39;49.38;;;26.00;;
4646;SDS011;2336;47.822;7.564;2022-12-17T18:26:07;44.92;;;25.83;;
4646;SDS011;2336;47.822;7.564;2022-12-17T18:28:37;50.28;;;28.15;;
4646;SDS011;2336;47.822;7.564;2022-12-17T18:31:09;36.10;;;22.60;;
4646;SDS011;2336;47.822;7.564;2022-12-17T18:33:41;39.40;;;24.25;;
4646;SDS011;2336;47.822;7.564;2022-12-17T18:36:12;41.75;;;23.45;;
4646;SDS011;2336;47.822;7.564;2022-12-17T18:38:42;34.22;;;22.60;;
4646;SDS011;2336;47.822;7.564;2022-12-17T18:41:10;47.75;;;26.65;;
4646;SDS011;2336;47.822;7.564;2022-12-17T18:43:57;45.03;;;25.27;;
4646;SDS011;2336;47.822;7.564;2022-12-17T18:46:25;49.22;;;27.13;;
4646;SDS011;2336;47.822;7.564;2022-12-17T18:48:52;46.65;;;24.50;;
4646;SDS011;2336;47.822;7.564;2022-12-17T18:51:22;54.17;;;28.25;;
4646;SDS011;2336;47.822;7.564;2022-12-17T18:53:51;43.00;;;24.35;;
4646;SDS011;2336;47.822;7.564;2022-12-17T18:56:21;43.78;;;23.30;;
4646;SDS011;2336;47.822;7.564;2022-12-17T18:58:47;36.80;;;21.40;;
4646;SDS011;2336;47.822;7.564;2022-12-17T19:01:18;47.78;;;25.15;;
4646;SDS011;2336;47.822;7.564;2022-12-17T19:03:46;57.50;;;27.42;;
4646;SDS011;2336;47.822;7.564;2022-12-17T19:06:13;62.10;;;28.67;;
4646;SDS011;2336;47.822;7.564;2022-12-17T19:08:41;43.45;;;22.65;;
4646;SDS011;2336;47.822;7.564;2022-12-17T19:11:10;37.55;;;19.77;;
4646;SDS011;2336;47.822;7.564;2022-12-17T19:13:38;48.40;;;23.17;;
4646;SDS011;2336;47.822;7.564;2022-12-17T19:16:06;45.03;;;23.15;;
4646;SDS011;2336;47.822;7.564;2022-12-17T19:18:34;45.78;;;24.92;;
4646;SDS011;2336;47.822;7.564;2022-12-17T19:21:01;45.08;;;26.27;;
4646;SDS011;2336;47.822;7.564;2022-12-17T19:23:28;57.75;;;22.90;;
4646;SDS011;2336;47.822;7.564;2022-12-17T19:25:56;46.80;;;24.65;;
4646;SDS011;2336;47.822;7.564;2022-12-17T19:28:33;35.47;;;20.80;;
4646;SDS011;2336;47.822;7.564;2022-12-17T19:31:00;63.20;;;23.65;;
4646;SDS011;2336;47.822;7.564;2022-12-17T19:33:26;51.20;;;23.58;;
4646;SDS011;2336;47.822;7.564;2022-12-17T19:36:00;47.53;;;23.02;;
4646;SDS011;2336;47.822;7.564;2022-12-17T19:38:28;54.13;;;23.48;;
4646;SDS011;2336;47.822;7.564;2022-12-17T19:40:57;48.65;;;23.48;;
4646;SDS011;2336;47.822;7.564;2022-12-17T19:43:27;37.13;;;19.48;;
4646;SDS011;2336;47.822;7.564;2022-12-17T19:46:00;52.50;;;21.15;;
4646;SDS011;2336;47.822;7.564;2022-12-17T19:48:29;41.85;;;19.67;;
4646;SDS011;2336;47.822;7.564;2022-12-17T19:50:56;37.95;;;19.15;;
4646;SDS011;2336;47.822;7.564;2022-12-17T19:53:23;52.53;;;22.60;;
4646;SDS011;2336;47.822;7.564;2022-12-17T19:55:51;33.70;;;19.27;;
4646;SDS011;2336;47.822;7.564;2022-12-17T19:58:19;53.63;;;23.35;;
4646;SDS011;2336;47.822;7.564;2022-12-17T20:00:46;55.72;;;28.70;;
4646;SDS011;2336;47.822;7.564;2022-12-17T20:03:14;56.22;;;32.20;;
4646;SDS011;2336;47.822;7.564;2022-12-17T20:05:42;41.90;;;23.25;;
4646;SDS011;2336;47.822;7.564;2022-12-17T20:08:09;26.88;;;16.83;;
4646;SDS011;2336;47.822;7.564;2022-12-17T20:10:36;29.42;;;17.80;;
4646;SDS011;2336;47.822;7.564;2022-12-17T20:13:03;37.45;;;19.83;;
4646;SDS011;2336;47.822;7.564;2022-12-17T20:15:30;31.23;;;18.70;;
4646;SDS011;2336;47.822;7.564;2022-12-17T20:17:57;30.90;;;17.80;;
4646;SDS011;2336;47.822;7.564;2022-12-17T20:20:25;38.60;;;22.15;;
4646;SDS011;2336;47.822;7.564;2022-12-17T20:22:52;52.35;;;24.45;;
4646;SDS011;2336;47.822;7.564;2022-12-17T20:25:19;42.67;;;19.45;;
4646;SDS011;2336;47.822;7.564;2022-12-17T20:27:46;32.25;;;18.08;;
4646;SDS011;2336;47.822;7.564;2022-12-17T20:30:12;35.58;;;18.45;;
4646;SDS011;2336;47.822;7.564;2022-12-17T20:32:39;26.45;;;16.23;;
4646;SDS011;2336;47.822;7.564;2022-12-17T20:35:06;26.40;;;16.70;;
4646;SDS011;2336;47.822;7.564;2022-12-17T20:37:35;24.17;;;16.85;;
4646;SDS011;2336;47.822;7.564;2022-12-17T20:40:02;27.45;;;16.45;;
4646;SDS011;2336;47.822;7.564;2022-12-17T20:42:29;28.77;;;17.10;;
4646;SDS011;2336;47.822;7.564;2022-12-17T20:44:56;25.05;;;16.90;;
4646;SDS011;2336;47.822;7.564;2022-12-17T20:47:23;27.75;;;18.88;;
4646;SDS011;2336;47.822;7.564;2022-12-17T20:49:49;32.45;;;19.80;;
4646;SDS011;2336;47.822;7.564;2022-12-17T20:52:16;27.65;;;17.38;;
4646;SDS011;2336;47.822;7.564;2022-12-17T20:54:44;25.52;;;16.35;;
4646;SDS011;2336;47.822;7.564;2022-12-17T20:57:11;28.20;;;18.40;;
4646;SDS011;2336;47.822;7.564;2022-12-17T20:59:38;31.27;;;18.55;;
4646;SDS011;2336;47.822;7.564;2022-12-17T21:02:05;42.92;;;20.55;;
4646;SDS011;2336;47.822;7.564;2022-12-17T21:04:32;33.70;;;18.75;;
4646;SDS011;2336;47.822;7.564;2022-12-17T21:06:59;45.72;;;18.90;;
4646;SDS011;2336;47.822;7.564;2022-12-17T21:09:25;32.38;;;19.10;;
4646;SDS011;2336;47.822;7.564;2022-12-17T21:11:54;37.90;;;19.15;;
4646;SDS011;2336;47.822;7.564;2022-12-17T21:14:20;40.33;;;18.92;;
4646;SDS011;2336;47.822;7.564;2022-12-17T21:16:47;36.80;;;18.38;;
4646;SDS011;2336;47.822;7.564;2022-12-17T21:19:15;27.08;;;16.02;;
4646;SDS011;2336;47.822;7.564;2022-12-17T21:21:43;48.60;;;19.77;;
4646;SDS011;2336;47.822;7.564;2022-12-17T21:24:10;27.75;;;15.25;;
4646;SDS011;2336;47.822;7.564;2022-12-17T21:26:38;36.25;;;18.23;;
4646;SDS011;2336;47.822;7.564;2022-12-17T21:29:07;24.42;;;15.63;;
